Time,TemperatureF,DewpointF,PressureIn,WindDirection,WindDirectionDegrees,WindSpeedMPH,WindSpeedGustMPH,Humidity,HourlyPrecipIn,Conditions,Clouds,dailyrainin,SoftwareType,DateUTC
2013-09-24 00:14:00,57.0,55.0,-100.00,West,264,0.0,3.0,93,0.00,,,0.00,,2013-09-24 04:14:00,
2013-09-24 00:24:00,57.0,55.0,-100.00,West,260,0.0,2.0,93,0.00,,,0.00,,2013-09-24 04:24:00,
2013-09-24 00:34:00,57.0,55.0,-100.00,West,260,0.0,2.0,93,0.00,,,0.00,,2013-09-24 04:34:00,
2013-09-24 00:54:00,57.0,55.0,-100.00,NW,325,1.0,3.0,93,0.00,,,0.00,,2013-09-24 04:54:00,
2013-09-24 01:13:00,57.0,55.0,-100.00,WNW,295,1.0,2.0,93,0.00,,,0.00,,2013-09-24 05:13:00,
2013-09-24 01:23:00,57.0,55.0,-100.00,WSW,251,0.0,2.0,93,0.00,,,0.00,,2013-09-24 05:23:00,
2013-09-24 01:34:00,57.0,55.0,-100.00,WSW,251,0.0,2.0,93,0.00,,,0.00,,2013-09-24 05:34:00,
2013-09-24 01:53:00,57.0,55.0,-100.00,SSW,208,1.0,2.0,93,0.00,,,0.00,,2013-09-24 05:53:00,
2013-09-24 02:13:00,57.0,55.0,-100.00,NW,304,0.0,2.0,92,0.00,,,0.00,,2013-09-24 06:13:00,
2013-09-24 02:22:00,57.0,54.0,-100.00,NNW,346,1.0,3.0,91,0.00,,,0.00,,2013-09-24 06:22:00,
2013-09-24 02:32:00,57.0,54.0,-100.00,NNW,346,1.0,3.0,91,0.00,,,0.00,,2013-09-24 06:32:00,
2013-09-24 02:52:00,57.0,54.0,-100.00,NE,34,3.0,6.0,88,0.00,,,0.00,,2013-09-24 06:52:00,
2013-09-24 03:12:00,57.0,54.0,-100.00,NE,41,3.0,5.0,90,0.00,,,0.00,,2013-09-24 07:12:00,
2013-09-24 03:22:00,57.0,53.0,-100.00,NNE,14,2.0,5.0,88,0.00,,,0.00,,2013-09-24 07:22:00,
2013-09-24 03:32:00,57.0,53.0,-100.00,NNE,14,2.0,5.0,88,0.00,,,0.00,,2013-09-24 07:32:00,
2013-09-24 03:52:00,57.0,53.0,-100.00,NE,44,3.0,5.0,87,0.00,,,0.00,,2013-09-24 07:52:00,
2013-09-24 04:10:00,55.0,52.0,-100.00,North,10,2.0,4.0,89,0.00,,,0.00,,2013-09-24 08:10:00,
2013-09-24 04:11:00,56.0,53.0,-100.00,North,354,1.0,4.0,89,0.00,,,0.00,,2013-09-24 08:11:00,
2013-09-24 04:23:00,55.0,53.0,-100.00,North,3,1.0,5.0,90,0.00,,,0.00,,2013-09-24 08:23:00,
2013-09-24 04:32:00,55.0,53.0,-100.00,North,3,1.0,5.0,90,0.00,,,0.00,,2013-09-24 08:32:00,
2013-09-24 04:52:00,55.0,52.0,-100.00,North,10,2.0,4.0,89,0.00,,,0.00,,2013-09-24 08:52:00,
2013-09-24 05:02:00,55.0,52.0,-100.00,North,10,2.0,4.0,89,0.00,,,0.00,,2013-09-24 09:02:00,
2013-09-24 05:22:00,55.0,52.0,-100.00,NNW,332,1.0,4.0,90,0.00,,,0.00,,2013-09-24 09:22:00,
2013-09-24 05:33:00,55.0,52.0,-100.00,NNW,332,1.0,4.0,90,0.00,,,0.00,,2013-09-24 09:33:00,
2013-09-24 05:53:00,55.0,52.0,-100.00,NE,44,2.0,4.0,89,0.00,,,0.00,,2013-09-24 09:53:00,
2013-09-24 06:13:00,54.0,52.0,-100.00,NE,52,1.0,4.0,91,0.00,,,0.00,,2013-09-24 10:13:00,
2013-09-24 06:23:00,54.0,52.0,-100.00,NE,52,1.0,4.0,91,0.00,,,0.00,,2013-09-24 10:23:00,
2013-09-24 06:53:00,53.0,51.0,-100.00,NE,48,2.0,3.0,92,0.00,,,0.00,,2013-09-24 10:53:00,
2013-09-24 07:11:00,53.0,51.0,-100.00,NE,44,2.0,4.0,92,0.00,,,0.00,,2013-09-24 11:11:00,
2013-09-24 07:22:00,53.0,51.0,-100.00,NE,51,2.0,6.0,93,0.00,,,0.00,,2013-09-24 11:22:00,
2013-09-24 07:30:00,53.0,51.0,-100.00,NE,42,3.0,6.0,93,0.00,,,0.00,,2013-09-24 11:30:00,
2013-09-24 07:33:00,53.0,51.0,-100.00,NE,51,2.0,6.0,93,0.00,,,0.00,,2013-09-24 11:33:00,
2013-09-24 07:52:00,53.0,51.0,-100.00,NE,38,3.0,5.0,93,0.00,,,0.00,,2013-09-24 11:52:00,
2013-09-24 08:12:00,53.0,51.0,-100.00,NE,42,3.0,6.0,93,0.00,,,0.00,,2013-09-24 12:12:00,
2013-09-24 08:22:00,53.0,51.0,-100.00,NE,42,3.0,6.0,93,0.00,,,0.00,,2013-09-24 12:22:00,
2013-09-24 08:52:00,54.0,51.0,-100.00,NE,49,3.0,6.0,92,0.00,,,0.00,,2013-09-24 12:52:00,
2013-09-24 09:22:00,57.0,52.0,-100.00,ENE,68,2.0,5.0,84,0.00,,,0.00,,2013-09-24 13:22:00,
2013-09-24 09:32:00,57.0,52.0,-100.00,ENE,68,2.0,5.0,84,0.00,,,0.00,,2013-09-24 13:32:00,
2013-09-24 09:52:00,58.0,52.0,-100.00,ENE,64,3.0,6.0,80,0.00,,,0.00,,2013-09-24 13:52:00,
2013-09-24 10:12:00,58.0,52.0,-100.00,NE,40,4.0,7.0,79,0.00,,,0.00,,2013-09-24 14:12:00,
2013-09-24 10:21:00,60.0,52.0,-100.00,NE,35,2.0,5.0,74,0.00,,,0.00,,2013-09-24 14:21:00,
2013-09-24 10:32:00,60.0,52.0,-100.00,NE,35,2.0,5.0,74,0.00,,,0.00,,2013-09-24 14:32:00,
2013-09-24 10:52:00,63.0,51.0,-100.00,East,100,2.0,4.0,64,0.00,,,0.00,,2013-09-24 14:52:00,
2013-09-24 11:11:00,65.0,51.0,-100.00,ENE,58,2.0,5.0,59,0.00,,,0.00,,2013-09-24 15:11:00,
2013-09-24 11:22:00,66.0,51.0,-100.00,South,186,2.0,5.0,59,0.00,,,0.00,,2013-09-24 15:22:00,
2013-09-24 11:33:00,66.0,51.0,-100.00,South,186,2.0,5.0,59,0.00,,,0.00,,2013-09-24 15:33:00,
2013-09-24 11:53:00,67.0,52.0,-100.00,SW,233,2.0,6.0,60,0.00,,,0.00,,2013-09-24 15:53:00,
2013-09-24 12:13:00,67.0,52.0,-100.00,SSE,150,3.0,6.0,60,0.00,,,0.00,,2013-09-24 16:13:00,
2013-09-24 12:23:00,69.0,54.0,-100.00,SSE,161,3.0,8.0,59,0.00,,,0.00,,2013-09-24 16:23:00,
2013-09-24 12:33:00,69.0,54.0,-100.00,SSE,161,3.0,8.0,59,0.00,,,0.00,,2013-09-24 16:33:00,
2013-09-24 12:53:00,70.0,55.0,-100.00,ESE,104,2.0,5.0,58,0.00,,,0.00,,2013-09-24 16:53:00,
2013-09-24 13:13:00,71.0,55.0,-100.00,SW,217,2.0,5.0,56,0.00,,,0.00,,2013-09-24 17:13:00,
2013-09-24 13:23:00,71.0,54.0,-100.00,South,189,3.0,8.0,55,0.00,,,0.00,,2013-09-24 17:23:00,
2013-09-24 13:33:00,71.0,54.0,-100.00,South,189,3.0,8.0,55,0.00,,,0.00,,2013-09-24 17:33:00,
2013-09-24 13:54:00,72.0,55.0,-100.00,SSE,158,2.0,5.0,55,0.00,,,0.00,,2013-09-24 17:54:00,
2013-09-24 14:12:00,72.0,56.0,-100.00,WNW,289,2.0,5.0,55,0.00,,,0.00,,2013-09-24 18:12:00,
2013-09-24 14:22:00,75.0,56.0,-100.00,ESE,107,2.0,5.0,51,0.00,,,0.00,,2013-09-24 18:22:00,
2013-09-24 14:32:00,75.0,56.0,-100.00,ESE,107,2.0,5.0,51,0.00,,,0.00,,2013-09-24 18:32:00,
2013-09-24 14:42:00,75.0,56.0,-100.00,ESE,107,2.0,5.0,51,0.00,,,0.00,,2013-09-24 18:42:00,
2013-09-24 14:53:00,75.0,57.0,-100.00,SE,141,3.0,6.0,53,0.00,,,0.00,,2013-09-24 18:53:00,
2013-09-24 15:12:00,75.0,56.0,-100.00,SSW,205,2.0,5.0,52,0.00,,,0.00,,2013-09-24 19:12:00,
2013-09-24 15:22:00,76.0,56.0,-100.00,South,185,5.0,9.0,51,0.00,,,0.00,,2013-09-24 19:22:00,
2013-09-24 15:32:00,76.0,56.0,-100.00,South,185,5.0,9.0,51,0.00,,,0.00,,2013-09-24 19:32:00,
2013-09-24 15:52:00,77.0,55.0,-100.00,SSW,192,3.0,6.0,47,0.00,,,0.00,,2013-09-24 19:52:00,
2013-09-24 16:12:00,77.0,57.0,-100.00,ESE,113,3.0,5.0,49,0.00,,,0.00,,2013-09-24 20:12:00,
2013-09-24 16:22:00,78.0,57.0,-100.00,SSE,167,3.0,7.0,48,0.00,,,0.00,,2013-09-24 20:22:00,
2013-09-24 16:32:00,78.0,57.0,-100.00,SSE,167,3.0,7.0,48,0.00,,,0.00,,2013-09-24 20:32:00,
2013-09-24 16:52:00,77.0,58.0,-100.00,ENE,78,2.0,6.0,50,0.00,,,0.00,,2013-09-24 20:52:00,
2013-09-24 17:12:00,78.0,57.0,-100.00,ESE,114,3.0,6.0,49,0.00,,,0.00,,2013-09-24 21:12:00,
2013-09-24 17:22:00,78.0,57.0,-100.00,SSE,161,3.0,6.0,49,0.00,,,0.00,,2013-09-24 21:22:00,
2013-09-24 17:33:00,78.0,57.0,-100.00,SSE,161,3.0,6.0,49,0.00,,,0.00,,2013-09-24 21:33:00,
2013-09-24 17:54:00,77.0,56.0,-100.00,ENE,72,2.0,6.0,48,0.00,,,0.00,,2013-09-24 21:54:00,
2013-09-24 18:13:00,78.0,58.0,-100.00,SE,136,2.0,5.0,51,0.00,,,0.00,,2013-09-24 22:13:00,
2013-09-24 18:24:00,76.0,58.0,-100.00,ESE,102,2.0,6.0,53,0.00,,,0.00,,2013-09-24 22:24:00,
2013-09-24 18:34:00,76.0,58.0,-100.00,ESE,102,2.0,6.0,53,0.00,,,0.00,,2013-09-24 22:34:00,
2013-09-24 18:53:00,75.0,58.0,-100.00,ESE,120,2.0,6.0,57,0.00,,,0.00,,2013-09-24 22:53:00,
2013-09-24 19:13:00,72.0,59.0,-100.00,NNE,21,2.0,7.0,65,0.00,,,0.00,,2013-09-24 23:13:00,
2013-09-24 19:22:00,70.0,59.0,-100.00,NNW,332,1.0,5.0,70,0.00,,,0.00,,2013-09-24 23:22:00,
2013-09-24 19:33:00,70.0,59.0,-100.00,NNW,332,1.0,5.0,70,0.00,,,0.00,,2013-09-24 23:33:00,
2013-09-24 19:53:00,67.0,59.0,-100.00,NNW,328,1.0,2.0,76,0.00,,,0.00,,2013-09-24 23:53:00,
2013-09-24 20:12:00,66.0,59.0,-100.00,NNW,347,1.0,3.0,78,0.00,,,0.00,,2013-09-25 00:12:00,
2013-09-24 20:22:00,65.0,59.0,-100.00,North,8,1.0,4.0,81,0.00,,,0.00,,2013-09-25 00:22:00,
2013-09-24 20:33:00,65.0,59.0,-100.00,North,8,1.0,4.0,81,0.00,,,0.00,,2013-09-25 00:33:00,
2013-09-24 20:52:00,63.0,59.0,-100.00,West,261,1.0,4.0,86,0.00,,,0.00,,2013-09-25 00:52:00,
2013-09-24 21:12:00,62.0,58.0,-100.00,NNW,337,1.0,4.0,87,0.00,,,0.00,,2013-09-25 01:12:00,
2013-09-24 21:22:00,61.0,58.0,-100.00,WNW,292,1.0,3.0,90,0.00,,,0.00,,2013-09-25 01:22:00,
2013-09-24 21:32:00,61.0,58.0,-100.00,WNW,292,1.0,3.0,90,0.00,,,0.00,,2013-09-25 01:32:00,
2013-09-24 21:52:00,60.0,58.0,-100.00,SW,234,1.0,2.0,92,0.00,,,0.00,,2013-09-25 01:52:00,
2013-09-24 22:12:00,60.0,58.0,-100.00,West,264,1.0,2.0,92,0.00,,,0.00,,2013-09-25 02:12:00,
2013-09-24 22:22:00,60.0,58.0,-100.00,SW,232,0.0,2.0,93,0.00,,,0.00,,2013-09-25 02:22:00,
2013-09-24 22:32:00,60.0,58.0,-100.00,SW,232,0.0,2.0,93,0.00,,,0.00,,2013-09-25 02:32:00,
2013-09-24 22:52:00,60.0,58.0,-100.00,West,260,0.0,2.0,93,0.00,,,0.00,,2013-09-25 02:52:00,
2013-09-24 23:11:00,60.0,58.0,-100.00,WSW,254,1.0,4.0,93,0.00,,,0.00,,2013-09-25 03:11:00,
2013-09-24 23:23:00,60.0,58.0,-100.00,WSW,239,1.0,2.0,93,0.00,,,0.00,,2013-09-25 03:23:00,
2013-09-24 23:34:00,60.0,58.0,-100.00,WSW,239,1.0,2.0,93,0.00,,,0.00,,2013-09-25 03:34:00,
2013-09-24 23:54:00,59.0,58.0,-100.00,NNW,335,1.0,4.0,94,0.00,,,0.00,,2013-09-25 03:54:00,